sensor_id;sensor_type;location;lat;lon;timestamp;P1;durP1;ratioP1;P2;durP2;ratioP2
30539;SDS011;17321;46.312;4.776;2023-02-08T00:01:09;25.58;;;15.88;;
30539;SDS011;17321;46.312;4.776;2023-02-08T00:03:36;31.55;;;16.30;;
30539;SDS011;17321;46.312;4.776;2023-02-08T00:06:02;25.88;;;15.40;;
30539;SDS011;17321;46.312;4.776;2023-02-08T00:08:29;22.42;;;14.68;;
30539;SDS011;17321;46.312;4.776;2023-02-08T00:10:55;24.45;;;15.02;;
30539;SDS011;17321;46.312;4.776;2023-02-08T00:13:21;23.27;;;14.98;;
30539;SDS011;17321;46.312;4.776;2023-02-08T00:15:48;29.33;;;17.10;;
30539;SDS011;17321;46.312;4.776;2023-02-08T00:18:14;25.63;;;14.23;;
30539;SDS011;17321;46.312;4.776;2023-02-08T00:20:40;23.35;;;15.68;;
30539;SDS011;17321;46.312;4.776;2023-02-08T00:23:07;28.17;;;16.08;;
30539;SDS011;17321;46.312;4.776;2023-02-08T00:25:33;29.38;;;16.35;;
30539;SDS011;17321;46.312;4.776;2023-02-08T00:27:59;26.63;;;16.08;;
30539;SDS011;17321;46.312;4.776;2023-02-08T00:30:25;26.85;;;16.35;;
30539;SDS011;17321;46.312;4.776;2023-02-08T00:32:51;25.10;;;16.17;;
30539;SDS011;17321;46.312;4.776;2023-02-08T00:35:18;23.85;;;15.02;;
30539;SDS011;17321;46.312;4.776;2023-02-08T00:37:44;28.25;;;16.77;;
30539;SDS011;17321;46.312;4.776;2023-02-08T00:40:10;29.15;;;17.25;;
30539;SDS011;17321;46.312;4.776;2023-02-08T00:42:36;30.63;;;16.65;;
30539;SDS011;17321;46.312;4.776;2023-02-08T00:45:03;29.80;;;17.98;;
30539;SDS011;17321;46.312;4.776;2023-02-08T00:47:29;26.60;;;16.88;;
30539;SDS011;17321;46.312;4.776;2023-02-08T00:49:55;27.55;;;17.80;;
30539;SDS011;17321;46.312;4.776;2023-02-08T00:52:21;27.85;;;16.58;;
30539;SDS011;17321;46.312;4.776;2023-02-08T00:54:47;28.70;;;16.63;;
30539;SDS011;17321;46.312;4.776;2023-02-08T00:57:13;29.95;;;19.10;;
30539;SDS011;17321;46.312;4.776;2023-02-08T00:59:40;30.35;;;17.38;;
30539;SDS011;17321;46.312;4.776;2023-02-08T01:02:06;26.15;;;17.85;;
30539;SDS011;17321;46.312;4.776;2023-02-08T01:04:32;26.98;;;17.15;;
30539;SDS011;17321;46.312;4.776;2023-02-08T01:06:58;27.38;;;17.33;;
30539;SDS011;17321;46.312;4.776;2023-02-08T01:09:24;33.13;;;17.95;;
30539;SDS011;17321;46.312;4.776;2023-02-08T01:11:50;32.55;;;18.58;;
30539;SDS011;17321;46.312;4.776;2023-02-08T01:14:16;29.92;;;17.30;;
30539;SDS011;17321;46.312;4.776;2023-02-08T01:16:42;27.88;;;18.17;;
30539;SDS011;17321;46.312;4.776;2023-02-08T01:19:09;30.30;;;18.45;;
30539;SDS011;17321;46.312;4.776;2023-02-08T01:21:38;26.85;;;18.20;;
30539;SDS011;17321;46.312;4.776;2023-02-08T01:24:04;29.70;;;19.50;;
30539;SDS011;17321;46.312;4.776;2023-02-08T01:26:30;31.77;;;19.23;;
30539;SDS011;17321;46.312;4.776;2023-02-08T01:28:57;31.13;;;18.42;;
30539;SDS011;17321;46.312;4.776;2023-02-08T01:31:25;32.75;;;18.95;;
30539;SDS011;17321;46.312;4.776;2023-02-08T01:33:53;30.73;;;19.63;;
30539;SDS011;17321;46.312;4.776;2023-02-08T01:36:19;30.50;;;18.67;;
30539;SDS011;17321;46.312;4.776;2023-02-08T01:38:45;29.92;;;19.05;;
30539;SDS011;17321;46.312;4.776;2023-02-08T01:41:19;31.55;;;19.42;;
30539;SDS011;17321;46.312;4.776;2023-02-08T01:46:30;28.85;;;19.35;;
30539;SDS011;17321;46.312;4.776;2023-02-08T01:48:59;33.92;;;20.35;;
30539;SDS011;17321;46.312;4.776;2023-02-08T01:51:28;31.42;;;20.65;;
30539;SDS011;17321;46.312;4.776;2023-02-08T01:53:56;33.15;;;21.08;;
30539;SDS011;17321;46.312;4.776;2023-02-08T01:56:27;35.60;;;22.80;;
30539;SDS011;17321;46.312;4.776;2023-02-08T01:58:54;34.05;;;20.75;;
30539;SDS011;17321;46.312;4.776;2023-02-08T02:03:48;34.35;;;21.08;;
30539;SDS011;17321;46.312;4.776;2023-02-08T02:06:16;36.35;;;20.95;;
30539;SDS011;17321;46.312;4.776;2023-02-08T02:08:47;35.17;;;20.55;;
30539;SDS011;17321;46.312;4.776;2023-02-08T02:11:14;35.35;;;21.35;;
30539;SDS011;17321;46.312;4.776;2023-02-08T02:13:40;33.72;;;20.40;;
30539;SDS011;17321;46.312;4.776;2023-02-08T02:16:06;31.80;;;20.60;;
30539;SDS011;17321;46.312;4.776;2023-02-08T02:18:32;32.55;;;20.23;;
30539;SDS011;17321;46.312;4.776;2023-02-08T02:28:34;32.13;;;19.70;;
30539;SDS011;17321;46.312;4.776;2023-02-08T02:36:27;37.15;;;22.23;;
30539;SDS011;17321;46.312;4.776;2023-02-08T02:41:52;33.85;;;22.38;;
30539;SDS011;17321;46.312;4.776;2023-02-08T02:50:03;43.45;;;22.63;;
30539;SDS011;17321;46.312;4.776;2023-02-08T02:52:34;34.72;;;21.02;;
30539;SDS011;17321;46.312;4.776;2023-02-08T02:55:04;37.05;;;22.58;;
30539;SDS011;17321;46.312;4.776;2023-02-08T02:57:32;40.03;;;24.15;;
30539;SDS011;17321;46.312;4.776;2023-02-08T02:59:59;34.50;;;21.52;;
30539;SDS011;17321;46.312;4.776;2023-02-08T03:02:26;37.28;;;24.17;;
30539;SDS011;17321;46.312;4.776;2023-02-08T03:04:53;33.88;;;22.13;;
30539;SDS011;17321;46.312;4.776;2023-02-08T03:07:24;34.70;;;21.08;;
30539;SDS011;17321;46.312;4.776;2023-02-08T03:10:54;37.13;;;22.75;;
30539;SDS011;17321;46.312;4.776;2023-02-08T03:20:19;34.72;;;21.77;;
30539;SDS011;17321;46.312;4.776;2023-02-08T03:25:18;39.65;;;23.77;;
30539;SDS011;17321;46.312;4.776;2023-02-08T03:30:14;39.65;;;24.35;;
30539;SDS011;17321;46.312;4.776;2023-02-08T03:32:59;41.90;;;23.90;;
30539;SDS011;17321;46.312;4.776;2023-02-08T03:35:36;40.72;;;25.35;;
30539;SDS011;17321;46.312;4.776;2023-02-08T03:38:04;50.28;;;24.98;;
30539;SDS011;17321;46.312;4.776;2023-02-08T03:40:38;42.38;;;26.13;;
30539;SDS011;17321;46.312;4.776;2023-02-08T03:43:08;38.38;;;24.50;;
30539;SDS011;17321;46.312;4.776;2023-02-08T03:45:39;40.20;;;24.75;;
30539;SDS011;17321;46.312;4.776;2023-02-08T03:48:08;40.83;;;26.45;;
30539;SDS011;17321;46.312;4.776;2023-02-08T03:50:35;38.22;;;24.80;;
30539;SDS011;17321;46.312;4.776;2023-02-08T03:53:03;38.17;;;24.48;;
30539;SDS011;17321;46.312;4.776;2023-02-08T03:55:31;34.80;;;22.55;;
30539;SDS011;17321;46.312;4.776;2023-02-08T03:58:03;37.58;;;23.08;;
30539;SDS011;17321;46.312;4.776;2023-02-08T04:00:32;37.63;;;24.30;;
30539;SDS011;17321;46.312;4.776;2023-02-08T04:05:26;42.25;;;25.63;;
30539;SDS011;17321;46.312;4.776;2023-02-08T04:07:53;37.80;;;24.45;;
30539;SDS011;17321;46.312;4.776;2023-02-08T04:10:19;39.42;;;24.92;;
30539;SDS011;17321;46.312;4.776;2023-02-08T04:12:46;38.63;;;24.45;;
30539;SDS011;17321;46.312;4.776;2023-02-08T04:15:13;44.45;;;23.15;;
30539;SDS011;17321;46.312;4.776;2023-02-08T04:17:39;45.72;;;24.88;;
30539;SDS011;17321;46.312;4.776;2023-02-08T04:20:05;40.35;;;24.95;;
30539;SDS011;17321;46.312;4.776;2023-02-08T04:22:32;42.33;;;25.77;;
30539;SDS011;17321;46.312;4.776;2023-02-08T04:24:59;34.65;;;23.20;;
30539;SDS011;17321;46.312;4.776;2023-02-08T04:27:25;38.47;;;23.27;;
30539;SDS011;17321;46.312;4.776;2023-02-08T04:29:51;38.45;;;24.73;;
30539;SDS011;17321;46.312;4.776;2023-02-08T04:32:17;41.88;;;24.35;;
30539;SDS011;17321;46.312;4.776;2023-02-08T04:34:43;33.40;;;22.77;;
30539;SDS011;17321;46.312;4.776;2023-02-08T04:37:09;38.67;;;23.98;;
30539;SDS011;17321;46.312;4.776;2023-02-08T04:39:36;36.50;;;23.65;;
30539;SDS011;17321;46.312;4.776;2023-02-08T04:42:02;34.63;;;23.77;;
30539;SDS011;17321;46.312;4.776;2023-02-08T04:44:28;36.10;;;24.15;;
30539;SDS011;17321;46.312;4.776;2023-02-08T04:46:56;36.83;;;23.47;;
30539;SDS011;17321;46.312;4.776;2023-02-08T04:49:23;35.88;;;23.67;;
30539;SDS011;17321;46.312;4.776;2023-02-08T04:51:49;39.90;;;24.02;;
30539;SDS011;17321;46.312;4.776;2023-02-08T04:54:15;43.78;;;25.17;;
30539;SDS011;17321;46.312;4.776;2023-02-08T04:56:41;38.13;;;23.75;;
30539;SDS011;17321;46.312;4.776;2023-02-08T04:59:08;40.95;;;23.20;;
30539;SDS011;17321;46.312;4.776;2023-02-08T05:01:34;36.05;;;23.73;;
30539;SDS011;17321;46.312;4.776;2023-02-08T05:04:00;37.58;;;23.90;;
30539;SDS011;17321;46.312;4.776;2023-02-08T05:06:26;39.38;;;24.30;;
30539;SDS011;17321;46.312;4.776;2023-02-08T05:08:52;39.33;;;24.45;;
30539;SDS011;17321;46.312;4.776;2023-02-08T05:11:22;34.60;;;22.63;;
30539;SDS011;17321;46.312;4.776;2023-02-08T05:13:49;36.88;;;23.65;;
30539;SDS011;17321;46.312;4.776;2023-02-08T05:16:15;36.05;;;22.67;;
30539;SDS011;17321;46.312;4.776;2023-02-08T05:18:41;38.38;;;22.40;;
30539;SDS011;17321;46.312;4.776;2023-02-08T05:21:07;39.25;;;24.88;;
30539;SDS011;17321;46.312;4.776;2023-02-08T05:23:33;40.78;;;24.40;;
30539;SDS011;17321;46.312;4.776;2023-02-08T05:26:04;38.13;;;23.88;;
30539;SDS011;17321;46.312;4.776;2023-02-08T05:28:30;43.08;;;26.60;;
30539;SDS011;17321;46.312;4.776;2023-02-08T05:30:56;40.05;;;24.83;;
30539;SDS011;17321;46.312;4.776;2023-02-08T05:33:22;36.47;;;23.25;;
30539;SDS011;17321;46.312;4.776;2023-02-08T05:35:48;35.83;;;23.00;;
30539;SDS011;17321;46.312;4.776;2023-02-08T05:38:14;42.45;;;24.00;;
30539;SDS011;17321;46.312;4.776;2023-02-08T05:40:40;42.47;;;27.13;;
30539;SDS011;17321;46.312;4.776;2023-02-08T05:43:06;41.35;;;24.48;;
30539;SDS011;17321;46.312;4.776;2023-02-08T05:45:32;37.55;;;23.85;;
30539;SDS011;17321;46.312;4.776;2023-02-08T05:47:59;39.63;;;24.58;;
30539;SDS011;17321;46.312;4.776;2023-02-08T05:50:25;34.42;;;22.58;;
30539;SDS011;17321;46.312;4.776;2023-02-08T05:52:51;39.30;;;23.90;;
30539;SDS011;17321;46.312;4.776;2023-02-08T05:55:17;37.70;;;24.58;;
30539;SDS011;17321;46.312;4.776;2023-02-08T05:57:43;40.95;;;26.23;;
30539;SDS011;17321;46.312;4.776;2023-02-08T06:00:10;40.60;;;23.92;;
30539;SDS011;17321;46.312;4.776;2023-02-08T06:02:36;44.05;;;25.60;;
30539;SDS011;17321;46.312;4.776;2023-02-08T06:05:02;37.03;;;23.98;;
30539;SDS011;17321;46.312;4.776;2023-02-08T06:07:28;43.40;;;25.77;;
30539;SDS011;17321;46.312;4.776;2023-02-08T06:09:54;39.00;;;23.98;;
30539;SDS011;17321;46.312;4.776;2023-02-08T06:12:20;41.60;;;24.13;;
30539;SDS011;17321;46.312;4.776;2023-02-08T06:14:47;38.55;;;24.08;;
30539;SDS011;17321;46.312;4.776;2023-02-08T06:17:13;35.47;;;22.88;;
30539;SDS011;17321;46.312;4.776;2023-02-08T06:19:39;38.72;;;24.00;;
30539;SDS011;17321;46.312;4.776;2023-02-08T06:22:05;39.92;;;23.38;;
30539;SDS011;17321;46.312;4.776;2023-02-08T06:24:31;36.80;;;24.58;;
30539;SDS011;17321;46.312;4.776;2023-02-08T06:26:57;39.13;;;24.15;;
30539;SDS011;17321;46.312;4.776;2023-02-08T06:29:23;46.75;;;24.42;;
30539;SDS011;17321;46.312;4.776;2023-02-08T06:31:49;34.92;;;21.80;;
30539;SDS011;17321;46.312;4.776;2023-02-08T06:34:16;38.55;;;23.67;;
30539;SDS011;17321;46.312;4.776;2023-02-08T06:36:42;43.00;;;25.88;;
30539;SDS011;17321;46.312;4.776;2023-02-08T06:39:09;41.10;;;24.30;;
30539;SDS011;17321;46.312;4.776;2023-02-08T06:41:35;41.63;;;26.30;;
30539;SDS011;17321;46.312;4.776;2023-02-08T06:44:02;42.47;;;24.40;;
30539;SDS011;17321;46.312;4.776;2023-02-08T06:46:28;47.25;;;26.48;;
30539;SDS011;17321;46.312;4.776;2023-02-08T06:48:54;104.40;;;57.95;;
30539;SDS011;17321;46.312;4.776;2023-02-08T06:51:23;49.13;;;30.25;;
30539;SDS011;17321;46.312;4.776;2023-02-08T06:53:49;54.72;;;34.92;;
30539;SDS011;17321;46.312;4.776;2023-02-08T06:56:15;47.47;;;28.05;;
30539;SDS011;17321;46.312;4.776;2023-02-08T06:58:41;52.83;;;30.15;;
30539;SDS011;17321;46.312;4.776;2023-02-08T07:01:12;47.95;;;27.40;;
30539;SDS011;17321;46.312;4.776;2023-02-08T07:03:38;54.33;;;28.55;;
30539;SDS011;17321;46.312;4.776;2023-02-08T07:06:04;48.85;;;28.55;;
30539;SDS011;17321;46.312;4.776;2023-02-08T07:08:31;47.22;;;27.42;;
30539;SDS011;17321;46.312;4.776;2023-02-08T07:10:57;41.20;;;27.70;;
30539;SDS011;17321;46.312;4.776;2023-02-08T07:13:23;40.13;;;26.80;;
30539;SDS011;17321;46.312;4.776;2023-02-08T07:15:50;40.88;;;26.42;;
30539;SDS011;17321;46.312;4.776;2023-02-08T07:18:16;49.63;;;26.20;;
30539;SDS011;17321;46.312;4.776;2023-02-08T07:20:42;43.38;;;26.00;;
30539;SDS011;17321;46.312;4.776;2023-02-08T07:23:08;39.35;;;23.63;;
30539;SDS011;17321;46.312;4.776;2023-02-08T07:25:34;41.03;;;24.73;;
30539;SDS011;17321;46.312;4.776;2023-02-08T07:28:00;38.50;;;24.83;;
30539;SDS011;17321;46.312;4.776;2023-02-08T07:30:26;45.03;;;26.77;;
30539;SDS011;17321;46.312;4.776;2023-02-08T07:32:52;46.72;;;26.95;;
30539;SDS011;17321;46.312;4.776;2023-02-08T07:35:18;51.55;;;28.17;;
30539;SDS011;17321;46.312;4.776;2023-02-08T07:37:45;46.83;;;28.25;;
30539;SDS011;17321;46.312;4.776;2023-02-08T07:40:11;45.90;;;28.77;;
30539;SDS011;17321;46.312;4.776;2023-02-08T07:42:37;51.72;;;30.48;;
30539;SDS011;17321;46.312;4.776;2023-02-08T07:45:03;48.65;;;28.58;;
30539;SDS011;17321;46.312;4.776;2023-02-08T07:47:31;54.42;;;31.52;;
30539;SDS011;17321;46.312;4.776;2023-02-08T07:49:57;46.80;;;29.50;;
30539;SDS011;17321;46.312;4.776;2023-02-08T07:52:23;49.72;;;28.05;;
30539;SDS011;17321;46.312;4.776;2023-02-08T07:54:49;47.78;;;29.13;;
30539;SDS011;17321;46.312;4.776;2023-02-08T07:57:18;45.85;;;27.63;;
30539;SDS011;17321;46.312;4.776;2023-02-08T07:59:46;48.20;;;29.48;;
30539;SDS011;17321;46.312;4.776;2023-02-08T08:02:15;48.35;;;29.40;;
30539;SDS011;17321;46.312;4.776;2023-02-08T08:04:42;47.70;;;28.35;;
30539;SDS011;17321;46.312;4.776;2023-02-08T08:07:08;46.90;;;28.17;;
30539;SDS011;17321;46.312;4.776;2023-02-08T08:09:34;50.78;;;28.38;;
30539;SDS011;17321;46.312;4.776;2023-02-08T08:12:00;48.50;;;29.95;;
30539;SDS011;17321;46.312;4.776;2023-02-08T08:14:27;47.78;;;29.48;;
30539;SDS011;17321;46.312;4.776;2023-02-08T08:16:53;45.20;;;28.20;;
30539;SDS011;17321;46.312;4.776;2023-02-08T08:19:19;46.65;;;28.48;;
30539;SDS011;17321;46.312;4.776;2023-02-08T08:21:45;46.90;;;28.48;;
30539;SDS011;17321;46.312;4.776;2023-02-08T08:24:11;45.28;;;27.58;;
30539;SDS011;17321;46.312;4.776;2023-02-08T08:26:37;46.10;;;28.98;;
30539;SDS011;17321;46.312;4.776;2023-02-08T08:29:03;52.25;;;32.72;;
30539;SDS011;17321;46.312;4.776;2023-02-08T08:31:31;56.75;;;32.40;;
30539;SDS011;17321;46.312;4.776;2023-02-08T08:33:57;54.45;;;32.38;;
30539;SDS011;17321;46.312;4.776;2023-02-08T08:36:23;56.35;;;32.25;;
30539;SDS011;17321;46.312;4.776;2023-02-08T08:38:50;53.58;;;32.83;;
30539;SDS011;17321;46.312;4.776;2023-02-08T08:41:16;51.95;;;32.47;;
30539;SDS011;17321;46.312;4.776;2023-02-08T08:43:42;51.85;;;30.83;;
30539;SDS011;17321;46.312;4.776;2023-02-08T08:46:09;53.83;;;32.55;;
30539;SDS011;17321;46.312;4.776;2023-02-08T08:48:35;53.95;;;31.98;;
30539;SDS011;17321;46.312;4.776;2023-02-08T08:51:02;57.40;;;34.78;;
30539;SDS011;17321;46.312;4.776;2023-02-08T08:53:29;56.58;;;34.65;;
30539;SDS011;17321;46.312;4.776;2023-02-08T08:55:55;55.38;;;32.10;;
30539;SDS011;17321;46.312;4.776;2023-02-08T08:58:21;51.60;;;34.53;;
30539;SDS011;17321;46.312;4.776;2023-02-08T09:00:47;51.58;;;32.10;;
30539;SDS011;17321;46.312;4.776;2023-02-08T09:03:13;55.53;;;32.50;;
30539;SDS011;17321;46.312;4.776;2023-02-08T09:05:40;47.67;;;31.55;;
30539;SDS011;17321;46.312;4.776;2023-02-08T09:08:06;53.80;;;31.05;;
30539;SDS011;17321;46.312;4.776;2023-02-08T09:10:32;49.97;;;29.95;;
30539;SDS011;17321;46.312;4.776;2023-02-08T09:12:58;53.40;;;31.65;;
30539;SDS011;17321;46.312;4.776;2023-02-08T09:15:24;51.53;;;29.65;;
30539;SDS011;17321;46.312;4.776;2023-02-08T09:17:50;48.80;;;32.70;;
30539;SDS011;17321;46.312;4.776;2023-02-08T09:20:16;43.53;;;29.67;;
30539;SDS011;17321;46.312;4.776;2023-02-08T09:22:42;47.53;;;29.63;;
30539;SDS011;17321;46.312;4.776;2023-02-08T09:25:08;57.80;;;33.92;;
30539;SDS011;17321;46.312;4.776;2023-02-08T09:27:35;52.97;;;31.27;;
30539;SDS011;17321;46.312;4.776;2023-02-08T09:30:01;52.90;;;33.28;;
30539;SDS011;17321;46.312;4.776;2023-02-08T09:32:29;58.35;;;34.60;;
30539;SDS011;17321;46.312;4.776;2023-02-08T09:34:58;49.45;;;29.98;;
30539;SDS011;17321;46.312;4.776;2023-02-08T09:37:24;47.25;;;30.42;;
30539;SDS011;17321;46.312;4.776;2023-02-08T09:39:50;46.67;;;29.70;;
30539;SDS011;17321;46.312;4.776;2023-02-08T09:42:22;49.85;;;31.10;;
30539;SDS011;17321;46.312;4.776;2023-02-08T09:45:07;44.33;;;30.48;;
30539;SDS011;17321;46.312;4.776;2023-02-08T09:47:43;45.22;;;28.67;;
30539;SDS011;17321;46.312;4.776;2023-02-08T09:50:12;42.47;;;28.55;;
30539;SDS011;17321;46.312;4.776;2023-02-08T09:55:26;48.13;;;30.00;;
30539;SDS011;17321;46.312;4.776;2023-02-08T09:57:53;50.30;;;29.23;;
30539;SDS011;17321;46.312;4.776;2023-02-08T10:00:24;49.30;;;30.25;;
30539;SDS011;17321;46.312;4.776;2023-02-08T10:02:52;50.20;;;29.48;;
30539;SDS011;17321;46.312;4.776;2023-02-08T10:05:19;43.35;;;29.38;;
30539;SDS011;17321;46.312;4.776;2023-02-08T10:07:46;48.90;;;29.25;;
30539;SDS011;17321;46.312;4.776;2023-02-08T10:10:19;45.70;;;30.73;;
30539;SDS011;17321;46.312;4.776;2023-02-08T10:15:52;48.70;;;31.17;;
30539;SDS011;17321;46.312;4.776;2023-02-08T10:18:25;52.72;;;31.27;;
30539;SDS011;17321;46.312;4.776;2023-02-08T10:25:51;47.08;;;31.23;;
30539;SDS011;17321;46.312;4.776;2023-02-08T10:31:17;44.47;;;31.15;;
30539;SDS011;17321;46.312;4.776;2023-02-08T10:36:14;48.38;;;29.92;;
30539;SDS011;17321;46.312;4.776;2023-02-08T10:38:41;48.70;;;29.37;;
30539;SDS011;17321;46.312;4.776;2023-02-08T10:41:08;46.53;;;29.40;;
30539;SDS011;17321;46.312;4.776;2023-02-08T10:43:46;45.38;;;30.80;;
30539;SDS011;17321;46.312;4.776;2023-02-08T10:46:15;47.15;;;29.00;;
30539;SDS011;17321;46.312;4.776;2023-02-08T10:51:28;47.08;;;29.92;;
30539;SDS011;17321;46.312;4.776;2023-02-08T10:53:54;40.40;;;27.00;;
30539;SDS011;17321;46.312;4.776;2023-02-08T10:59:31;43.53;;;28.05;;
30539;SDS011;17321;46.312;4.776;2023-02-08T11:01:58;45.55;;;30.13;;
30539;SDS011;17321;46.312;4.776;2023-02-08T11:04:24;46.50;;;29.35;;
30539;SDS011;17321;46.312;4.776;2023-02-08T11:06:50;44.42;;;29.75;;
30539;SDS011;17321;46.312;4.776;2023-02-08T11:09:26;47.95;;;28.67;;
30539;SDS011;17321;46.312;4.776;2023-02-08T11:11:53;43.45;;;29.35;;
30539;SDS011;17321;46.312;4.776;2023-02-08T11:14:28;47.05;;;29.65;;
30539;SDS011;17321;46.312;4.776;2023-02-08T11:16:56;43.70;;;27.25;;
30539;SDS011;17321;46.312;4.776;2023-02-08T11:21:58;44.75;;;28.98;;
30539;SDS011;17321;46.312;4.776;2023-02-08T11:24:32;48.03;;;27.67;;
30539;SDS011;17321;46.312;4.776;2023-02-08T11:27:14;45.65;;;28.35;;
30539;SDS011;17321;46.312;4.776;2023-02-08T11:29:40;43.38;;;29.20;;
30539;SDS011;17321;46.312;4.776;2023-02-08T11:32:17;41.70;;;28.23;;
30539;SDS011;17321;46.312;4.776;2023-02-08T11:34:43;48.22;;;30.02;;
30539;SDS011;17321;46.312;4.776;2023-02-08T11:39:39;42.50;;;29.65;;
30539;SDS011;17321;46.312;4.776;2023-02-08T11:42:12;46.80;;;29.77;;
30539;SDS011;17321;46.312;4.776;2023-02-08T11:44:42;47.00;;;31.55;;
30539;SDS011;17321;46.312;4.776;2023-02-08T11:47:10;45.75;;;30.75;;
30539;SDS011;17321;46.312;4.776;2023-02-08T11:49:40;44.20;;;30.42;;
30539;SDS011;17321;46.312;4.776;2023-02-08T11:54:49;45.30;;;30.80;;
30539;SDS011;17321;46.312;4.776;2023-02-08T11:57:23;49.22;;;32.53;;
30539;SDS011;17321;46.312;4.776;2023-02-08T11:59:50;52.13;;;33.83;;
30539;SDS011;17321;46.312;4.776;2023-02-08T12:05:00;51.00;;;33.70;;
30539;SDS011;17321;46.312;4.776;2023-02-08T12:20:32;54.40;;;35.63;;
30539;SDS011;17321;46.312;4.776;2023-02-08T12:23:12;46.38;;;32.40;;
30539;SDS011;17321;46.312;4.776;2023-02-08T12:28:09;50.35;;;32.53;;
30539;SDS011;17321;46.312;4.776;2023-02-08T12:40:52;49.42;;;32.80;;
30539;SDS011;17321;46.312;4.776;2023-02-08T12:48:39;47.03;;;32.95;;
30539;SDS011;17321;46.312;4.776;2023-02-08T12:51:13;50.42;;;33.90;;
30539;SDS011;17321;46.312;4.776;2023-02-08T12:54:02;51.85;;;32.85;;
30539;SDS011;17321;46.312;4.776;2023-02-08T12:56:31;49.90;;;34.25;;
30539;SDS011;17321;46.312;4.776;2023-02-08T12:59:00;54.05;;;34.13;;
30539;SDS011;17321;46.312;4.776;2023-02-08T13:01:33;50.35;;;32.80;;
30539;SDS011;17321;46.312;4.776;2023-02-08T13:04:03;46.33;;;32.03;;
30539;SDS011;17321;46.312;4.776;2023-02-08T13:06:40;51.70;;;33.40;;
30539;SDS011;17321;46.312;4.776;2023-02-08T13:09:14;46.42;;;32.47;;
30539;SDS011;17321;46.312;4.776;2023-02-08T13:11:51;43.22;;;32.17;;
30539;SDS011;17321;46.312;4.776;2023-02-08T13:16:45;46.80;;;32.17;;
30539;SDS011;17321;46.312;4.776;2023-02-08T13:19:24;51.05;;;32.85;;
30539;SDS011;17321;46.312;4.776;2023-02-08T13:21:52;48.10;;;33.45;;
30539;SDS011;17321;46.312;4.776;2023-02-08T13:24:24;48.42;;;32.30;;
30539;SDS011;17321;46.312;4.776;2023-02-08T13:26:51;51.38;;;33.15;;
30539;SDS011;17321;46.312;4.776;2023-02-08T13:29:18;47.55;;;32.88;;
30539;SDS011;17321;46.312;4.776;2023-02-08T13:31:52;48.13;;;32.65;;
30539;SDS011;17321;46.312;4.776;2023-02-08T13:36:56;47.20;;;32.30;;
30539;SDS011;17321;46.312;4.776;2023-02-08T13:41:53;45.25;;;32.17;;
30539;SDS011;17321;46.312;4.776;2023-02-08T13:44:21;47.55;;;31.42;;
30539;SDS011;17321;46.312;4.776;2023-02-08T13:46:49;42.92;;;29.08;;
30539;SDS011;17321;46.312;4.776;2023-02-08T13:52:01;42.55;;;29.55;;
30539;SDS011;17321;46.312;4.776;2023-02-08T13:54:27;40.75;;;29.02;;
30539;SDS011;17321;46.312;4.776;2023-02-08T13:56:54;43.67;;;30.67;;
30539;SDS011;17321;46.312;4.776;2023-02-08T14:02:12;41.20;;;30.25;;
30539;SDS011;17321;46.312;4.776;2023-02-08T14:04:32;42.00;;;29.52;;
30539;SDS011;17321;46.312;4.776;2023-02-08T14:07:04;40.45;;;27.08;;
30539;SDS011;17321;46.312;4.776;2023-02-08T14:09:42;44.42;;;29.23;;
30539;SDS011;17321;46.312;4.776;2023-02-08T14:12:14;41.80;;;28.70;;
30539;SDS011;17321;46.312;4.776;2023-02-08T14:14:44;40.50;;;27.95;;
30539;SDS011;17321;46.312;4.776;2023-02-08T14:17:29;52.50;;;28.75;;
30539;SDS011;17321;46.312;4.776;2023-02-08T14:19:58;43.10;;;29.90;;
30539;SDS011;17321;46.312;4.776;2023-02-08T14:22:30;43.03;;;29.15;;
30539;SDS011;17321;46.312;4.776;2023-02-08T14:27:28;39.47;;;27.95;;
30539;SDS011;17321;46.312;4.776;2023-02-08T14:30:07;49.05;;;30.10;;
30539;SDS011;17321;46.312;4.776;2023-02-08T14:32:44;43.05;;;28.02;;
30539;SDS011;17321;46.312;4.776;2023-02-08T14:37:42;37.88;;;27.17;;
30539;SDS011;17321;46.312;4.776;2023-02-08T14:45:34;37.83;;;27.70;;
30539;SDS011;17321;46.312;4.776;2023-02-08T14:50:40;41.08;;;27.08;;
30539;SDS011;17321;46.312;4.776;2023-02-08T14:58:35;38.45;;;26.50;;
30539;SDS011;17321;46.312;4.776;2023-02-08T15:01:05;38.28;;;27.25;;
30539;SDS011;17321;46.312;4.776;2023-02-08T15:03:32;41.30;;;28.23;;
30539;SDS011;17321;46.312;4.776;2023-02-08T15:08:25;41.13;;;28.42;;
30539;SDS011;17321;46.312;4.776;2023-02-08T15:10:52;44.30;;;29.70;;
30539;SDS011;17321;46.312;4.776;2023-02-08T15:13:19;41.03;;;26.38;;
30539;SDS011;17321;46.312;4.776;2023-02-08T15:15:49;42.10;;;26.38;;
30539;SDS011;17321;46.312;4.776;2023-02-08T15:18:18;39.70;;;28.45;;
30539;SDS011;17321;46.312;4.776;2023-02-08T15:20:45;41.45;;;29.95;;
30539;SDS011;17321;46.312;4.776;2023-02-08T15:23:21;40.88;;;29.50;;
30539;SDS011;17321;46.312;4.776;2023-02-08T15:26:21;36.28;;;27.05;;
30539;SDS011;17321;46.312;4.776;2023-02-08T15:28:40;44.50;;;26.83;;
30539;SDS011;17321;46.312;4.776;2023-02-08T15:31:12;42.55;;;27.30;;
30539;SDS011;17321;46.312;4.776;2023-02-08T15:33:39;37.50;;;27.15;;
30539;SDS011;17321;46.312;4.776;2023-02-08T15:36:43;37.42;;;25.48;;
30539;SDS011;17321;46.312;4.776;2023-02-08T15:39:03;39.90;;;27.33;;
30539;SDS011;17321;46.312;4.776;2023-02-08T15:41:33;39.08;;;28.55;;
30539;SDS011;17321;46.312;4.776;2023-02-08T15:46:38;40.42;;;25.77;;
30539;SDS011;17321;46.312;4.776;2023-02-08T15:49:05;39.67;;;25.98;;
30539;SDS011;17321;46.312;4.776;2023-02-08T15:51:32;34.78;;;25.52;;
30539;SDS011;17321;46.312;4.776;2023-02-08T15:53:58;38.22;;;25.60;;
30539;SDS011;17321;46.312;4.776;2023-02-08T15:56:26;38.53;;;25.98;;
30539;SDS011;17321;46.312;4.776;2023-02-08T15:58:54;38.85;;;25.38;;
30539;SDS011;17321;46.312;4.776;2023-02-08T16:01:21;41.88;;;27.25;;
30539;SDS011;17321;46.312;4.776;2023-02-08T16:03:49;37.58;;;26.05;;
30539;SDS011;17321;46.312;4.776;2023-02-08T16:06:19;41.67;;;27.67;;
30539;SDS011;17321;46.312;4.776;2023-02-08T16:08:48;38.90;;;26.55;;
30539;SDS011;17321;46.312;4.776;2023-02-08T16:11:19;38.30;;;27.02;;
30539;SDS011;17321;46.312;4.776;2023-02-08T16:13:46;38.08;;;25.92;;
30539;SDS011;17321;46.312;4.776;2023-02-08T16:18:43;34.25;;;25.00;;
30539;SDS011;17321;46.312;4.776;2023-02-08T16:23:50;39.20;;;26.98;;
30539;SDS011;17321;46.312;4.776;2023-02-08T16:27:02;37.97;;;24.58;;
30539;SDS011;17321;46.312;4.776;2023-02-08T16:29:06;35.20;;;24.90;;
30539;SDS011;17321;46.312;4.776;2023-02-08T16:31:41;37.63;;;24.42;;
30539;SDS011;17321;46.312;4.776;2023-02-08T16:34:13;37.03;;;23.23;;
30539;SDS011;17321;46.312;4.776;2023-02-08T16:36:40;38.80;;;24.85;;
30539;SDS011;17321;46.312;4.776;2023-02-08T16:39:19;45.25;;;26.52;;
30539;SDS011;17321;46.312;4.776;2023-02-08T16:44:15;40.63;;;25.00;;
30539;SDS011;17321;46.312;4.776;2023-02-08T16:46:44;39.35;;;24.98;;
30539;SDS011;17321;46.312;4.776;2023-02-08T16:49:10;33.15;;;23.40;;
30539;SDS011;17321;46.312;4.776;2023-02-08T16:51:36;37.28;;;25.58;;
30539;SDS011;17321;46.312;4.776;2023-02-08T16:54:09;37.67;;;27.00;;
30539;SDS011;17321;46.312;4.776;2023-02-08T16:56:37;38.97;;;25.52;;